Ibitinga, Brazil
Current Conditions -  °F | °C
As of 8:00 PM on Thursday 18 Dec 2014 (Local Time) from SBBU Reporting Station
Clear Clear  
Wind Chill: 88°   Ceiling: Unl
Heat Index: 91°   Visibility: 6mi
Dew Point: 68°   Wind: 0mph
Humidity: 52%   Direction: NA
Pressure: 29.77"   Gusts: NA
Location:  21.76°S, 48.83°W
Report Text: SBBU 182200Z 00000KT CAVOK 31/20 Q1008
Loading
Personal Weather Stations






























Interactive Weather Map New forecast layout! Learn more

10-Day Weather Forecast

Advertisements
Track Severe Weather on mobile